Time;durP1;ratioP1;P1;durP2;ratioP2;P2;SDS_P1;SDS_P2;PMS_P1;PMS_P2;Temp;Humidity;BMP_temperature;BMP_pressure;BME280_temperature;BME280_humidity;BME280_pressure;Samples;Min_cycle;Max_cycle;Signal;HPM_P1;HPM_P2
2022/08/13 00:02:42;;;;;;;1.80;1.00;;;;;;;;;;10409509;28;20408;-89
2022/08/13 00:07:44;;;;;;;2.65;1.20;;;;;;;;;;10393671;28;20457;-90
2022/08/13 00:13:00;;;;;;;1.77;1.20;;;;;;;;;;10402494;28;20534;-90
2022/08/13 00:18:06;;;;;;;2.97;1.10;;;;;;;;;;10406956;28;20903;-90
2022/08/13 00:23:13;;;;;;;1.38;1.10;;;;;;;;;;10401914;28;20501;-90
2022/08/13 00:28:18;;;;;;;1.88;1.00;;;;;;;;;;10386236;28;20441;-89
2022/08/13 00:33:24;;;;;;;1.67;1.10;;;;;;;;;;10395984;28;20912;-90
2022/08/13 00:38:28;;;;;;;1.77;1.10;;;;;;;;;;10409546;28;20417;-90
2022/08/13 00:43:33;;;;;;;1.73;1.10;;;;;;;;;;10406940;28;20497;-90
2022/08/13 00:48:42;;;;;;;1.42;1.10;;;;;;;;;;10402706;28;20495;-89
2022/08/13 00:53:46;;;;;;;2.15;1.02;;;;;;;;;;10401292;28;20426;-90
2022/08/13 00:58:48;;;;;;;1.27;0.93;;;;;;;;;;10403278;28;20479;-89
2022/08/13 01:03:51;;;;;;;1.33;1.08;;;;;;;;;;10406808;28;20485;-89
2022/08/13 01:08:54;;;;;;;1.38;0.95;;;;;;;;;;10396676;28;20907;-89
2022/08/13 01:13:58;;;;;;;0.90;0.90;;;;;;;;;;10400166;28;20424;-90
2022/08/13 01:19:06;;;;;;;1.73;1.10;;;;;;;;;;10399355;28;20826;-89
2022/08/13 01:24:12;;;;;;;2.08;0.95;;;;;;;;;;10407088;28;20833;-89
2022/08/13 01:29:16;;;;;;;1.50;0.80;;;;;;;;;;10408467;28;20420;-87
2022/08/13 01:34:22;;;;;;;3.45;1.00;;;;;;;;;;10407442;28;20431;-90
2022/08/13 01:39:25;;;;;;;1.83;1.08;;;;;;;;;;10424861;28;20746;-89
2022/08/13 01:44:32;;;;;;;0.97;0.90;;;;;;;;;;10409526;28;20401;-88
2022/08/13 01:55:09;;;;;;;1.27;1.17;;;;;;;;;;10410860;28;20935;-88
2022/08/13 02:00:14;;;;;;;1.90;1.40;;;;;;;;;;10412364;28;20402;-87
2022/08/13 02:05:16;;;;;;;1.15;1.05;;;;;;;;;;10404511;28;20414;-89
2022/08/13 02:10:20;;;;;;;2.08;1.15;;;;;;;;;;10430332;28;20436;-89
2022/08/13 02:15:22;;;;;;;1.70;1.20;;;;;;;;;;10416090;28;20832;-88
2022/08/13 02:20:24;;;;;;;1.85;1.10;;;;;;;;;;10409703;28;20410;-89
2022/08/13 02:25:29;;;;;;;1.07;0.97;;;;;;;;;;10405362;28;20496;-89
2022/08/13 02:30:32;;;;;;;1.90;1.20;;;;;;;;;;10401299;28;20935;-90
2022/08/13 02:35:36;;;;;;;2.60;1.23;;;;;;;;;;10407402;28;20487;-90
2022/08/13 02:46:00;;;;;;;1.20;1.10;;;;;;;;;;10402129;28;20418;-89
2022/08/13 02:51:02;;;;;;;1.23;1.10;;;;;;;;;;10405383;28;20405;-90
2022/08/13 02:56:08;;;;;;;1.70;1.00;;;;;;;;;;10405910;28;20495;-90
2022/08/13 03:01:11;;;;;;;1.83;1.00;;;;;;;;;;10388615;28;20455;-89
2022/08/13 03:06:13;;;;;;;1.70;1.15;;;;;;;;;;10399845;28;20489;-90
2022/08/13 03:11:17;;;;;;;3.13;1.20;;;;;;;;;;10395101;28;20464;-89
2022/08/13 03:16:27;;;;;;;1.13;1.00;;;;;;;;;;10400055;28;20411;-90
2022/08/13 03:21:30;;;;;;;3.80;1.30;;;;;;;;;;10403990;28;20494;-90
2022/08/13 03:26:35;;;;;;;2.42;1.10;;;;;;;;;;10396698;28;20409;-90
2022/08/13 03:31:37;;;;;;;2.10;1.23;;;;;;;;;;10406898;28;20843;-90
2022/08/13 03:36:39;;;;;;;1.55;1.10;;;;;;;;;;10404042;28;20484;-91
2022/08/13 03:41:42;;;;;;;2.60;1.58;;;;;;;;;;10410645;28;20410;-89
2022/08/13 03:46:47;;;;;;;1.45;1.35;;;;;;;;;;10400112;28;20496;-89
2022/08/13 03:51:49;;;;;;;4.05;1.33;;;;;;;;;;10401083;28;20421;-90
2022/08/13 03:56:52;;;;;;;1.92;1.40;;;;;;;;;;10401992;28;20897;-90
2022/08/13 04:01:54;;;;;;;1.40;1.30;;;;;;;;;;10409583;28;20438;-89
2022/08/13 04:06:57;;;;;;;2.27;1.40;;;;;;;;;;10399031;28;21034;-89
2022/08/13 04:12:00;;;;;;;2.47;1.35;;;;;;;;;;10406157;28;20470;-89
2022/08/13 04:17:05;;;;;;;2.90;1.27;;;;;;;;;;10395362;28;20414;-89
2022/08/13 04:22:07;;;;;;;1.85;1.10;;;;;;;;;;10399063;28;20403;-90
2022/08/13 04:27:13;;;;;;;1.13;1.03;;;;;;;;;;10402443;28;20821;-89
2022/08/13 04:32:15;;;;;;;1.50;1.00;;;;;;;;;;10409142;28;21024;-89
2022/08/13 04:37:17;;;;;;;1.47;1.10;;;;;;;;;;10403131;28;20411;-90
2022/08/13 04:42:20;;;;;;;1.48;0.93;;;;;;;;;;10390887;28;20449;-90
2022/08/13 04:47:22;;;;;;;1.98;1.10;;;;;;;;;;10400092;28;20875;-89
2022/08/13 04:52:24;;;;;;;1.80;1.05;;;;;;;;;;10394057;28;20427;-90
2022/08/13 04:57:28;;;;;;;2.63;1.05;;;;;;;;;;10396659;28;20405;-90
2022/08/13 05:02:29;;;;;;;2.60;1.25;;;;;;;;;;10394232;28;20433;-90
2022/08/13 05:07:31;;;;;;;1.23;1.13;;;;;;;;;;10399408;28;20410;-89
2022/08/13 05:12:38;;;;;;;2.00;1.20;;;;;;;;;;10392994;28;20511;-90
2022/08/13 05:17:40;;;;;;;1.80;1.20;;;;;;;;;;10408432;28;20806;-89
2022/08/13 05:22:43;;;;;;;1.90;1.23;;;;;;;;;;10398947;28;20483;-89
2022/08/13 05:27:46;;;;;;;5.30;3.58;;;;;;;;;;10398891;28;20428;-89
2022/08/13 05:32:50;;;;;;;2.30;1.20;;;;;;;;;;10399493;28;20902;-90
2022/08/13 05:37:52;;;;;;;1.80;1.20;;;;;;;;;;10399047;28;20412;-90
2022/08/13 05:42:56;;;;;;;1.30;1.02;;;;;;;;;;10397665;28;20500;-90
2022/08/13 05:47:58;;;;;;;1.20;1.10;;;;;;;;;;10394885;28;20410;-90
2022/08/13 05:53:05;;;;;;;1.60;1.30;;;;;;;;;;10403782;28;21085;-90
2022/08/13 05:58:12;;;;;;;1.53;1.00;;;;;;;;;;10392302;28;20401;-90
2022/08/13 06:03:27;;;;;;;2.40;1.10;;;;;;;;;;10419717;28;20544;-89
2022/08/13 06:08:31;;;;;;;2.00;1.10;;;;;;;;;;10399087;28;20460;-90
2022/08/13 06:13:37;;;;;;;2.05;1.23;;;;;;;;;;10401988;28;20429;-89
2022/08/13 06:18:43;;;;;;;2.42;1.27;;;;;;;;;;10412905;28;20405;-90
2022/08/13 06:23:49;;;;;;;1.97;1.20;;;;;;;;;;10417321;28;20881;-89
2022/08/13 06:28:53;;;;;;;2.27;1.30;;;;;;;;;;10405109;28;20407;-89
2022/08/13 06:33:56;;;;;;;1.40;1.30;;;;;;;;;;10400322;28;20457;-88
2022/08/13 06:39:05;;;;;;;2.75;1.30;;;;;;;;;;10399654;28;20404;-90
2022/08/13 06:44:11;;;;;;;2.60;1.35;;;;;;;;;;10415416;28;20416;-91
2022/08/13 06:49:13;;;;;;;3.05;1.20;;;;;;;;;;10399098;28;20850;-90
2022/08/13 06:54:14;;;;;;;2.42;1.10;;;;;;;;;;10394885;28;20521;-90
2022/08/13 06:59:19;;;;;;;2.33;1.20;;;;;;;;;;10395516;28;20441;-90
2022/08/13 07:04:21;;;;;;;1.20;1.00;;;;;;;;;;10406450;28;20425;-80
2022/08/13 07:09:23;;;;;;;1.75;1.27;;;;;;;;;;10395782;28;20435;-75
2022/08/13 07:14:27;;;;;;;1.50;0.80;;;;;;;;;;10403943;28;20448;-88
2022/08/13 07:19:28;;;;;;;2.78;1.00;;;;;;;;;;10396488;28;20403;-85
2022/08/13 07:24:31;;;;;;;1.20;1.10;;;;;;;;;;10404345;28;20424;-87
2022/08/13 07:29:36;;;;;;;2.10;0.80;;;;;;;;;;10405098;28;20407;-89
2022/08/13 07:34:37;;;;;;;1.93;1.20;;;;;;;;;;10384752;28;20425;-84
2022/08/13 07:39:40;;;;;;;1.90;1.20;;;;;;;;;;10393550;28;20490;-86
2022/08/13 07:44:43;;;;;;;1.60;1.17;;;;;;;;;;10375726;28;20411;-90
2022/08/13 07:49:46;;;;;;;1.90;1.10;;;;;;;;;;10401016;28;20902;-89
2022/08/13 07:54:48;;;;;;;1.63;1.05;;;;;;;;;;10408236;28;20455;-89
2022/08/13 07:59:52;;;;;;;2.55;1.30;;;;;;;;;;10396485;28;20405;-90
2022/08/13 08:04:56;;;;;;;2.30;1.10;;;;;;;;;;10393506;28;20416;-90
2022/08/13 08:09:59;;;;;;;1.80;0.93;;;;;;;;;;10392498;28;20471;-90
2022/08/13 08:15:07;;;;;;;2.70;0.93;;;;;;;;;;10396696;28;20538;-90
2022/08/13 08:20:10;;;;;;;1.95;1.00;;;;;;;;;;10391988;28;20484;-90
2022/08/13 08:25:17;;;;;;;1.17;0.80;;;;;;;;;;10392403;28;20527;-90
2022/08/13 08:30:21;;;;;;;1.48;0.90;;;;;;;;;;10399124;28;20896;-88
2022/08/13 08:35:24;;;;;;;1.55;1.08;;;;;;;;;;10395298;28;20509;-90
2022/08/13 08:45:52;;;;;;;1.80;0.90;;;;;;;;;;10400936;28;20905;-90
2022/08/13 08:50:53;;;;;;;2.05;1.00;;;;;;;;;;10401398;28;20964;-85
2022/08/13 08:55:56;;;;;;;1.42;0.98;;;;;;;;;;10398969;28;20425;-84
2022/08/13 09:01:00;;;;;;;1.13;0.85;;;;;;;;;;10399496;28;20399;-80
2022/08/13 09:06:02;;;;;;;1.20;1.08;;;;;;;;;;10404901;28;20548;-80
2022/08/13 09:11:05;;;;;;;1.40;0.90;;;;;;;;;;10404634;28;20411;-79
2022/08/13 09:16:08;;;;;;;1.20;1.10;;;;;;;;;;10395584;28;20503;-84
2022/08/13 09:21:10;;;;;;;1.27;1.10;;;;;;;;;;10400502;28;20494;-85
2022/08/13 09:26:12;;;;;;;3.88;1.10;;;;;;;;;;10403431;28;20496;-82
2022/08/13 09:31:16;;;;;;;1.58;0.98;;;;;;;;;;10397660;28;20429;-82
2022/08/13 09:36:19;;;;;;;2.20;1.10;;;;;;;;;;10376641;28;20479;-82
2022/08/13 09:41:26;;;;;;;2.03;1.00;;;;;;;;;;10384293;28;20409;-80
2022/08/13 09:46:31;;;;;;;2.25;1.20;;;;;;;;;;10391255;28;20494;-83
2022/08/13 09:51:35;;;;;;;1.23;1.00;;;;;;;;;;10385050;28;20457;-78
2022/08/13 12:57:19;;;;;;;1.50;1.40;;;;;;;;;;10597787;27;20380;-80
2022/08/13 13:02:21;;;;;;;2.78;1.50;;;;;;;;;;10553010;28;20565;-77
2022/08/13 13:07:23;;;;;;;2.53;1.40;;;;;;;;;;10556881;28;20477;-76
2022/08/13 13:12:26;;;;;;;4.85;1.40;;;;;;;;;;10555765;27;20400;-80
2022/08/13 13:17:29;;;;;;;2.03;1.50;;;;;;;;;;10549955;28;20769;-79
2022/08/13 13:22:31;;;;;;;2.03;1.40;;;;;;;;;;10548645;28;20489;-80
2022/08/13 13:27:37;;;;;;;2.53;1.60;;;;;;;;;;10537358;28;20484;-81
2022/08/13 13:32:39;;;;;;;1.88;1.58;;;;;;;;;;10546358;28;20396;-84
2022/08/13 13:37:42;;;;;;;3.07;1.60;;;;;;;;;;10542970;28;20506;-82
2022/08/13 13:42:45;;;;;;;3.13;1.53;;;;;;;;;;10548198;28;20940;-85
2022/08/13 13:47:47;;;;;;;2.87;1.60;;;;;;;;;;10547068;28;20401;-85
2022/08/13 13:52:49;;;;;;;1.60;1.50;;;;;;;;;;10548384;28;20427;-87
2022/08/13 13:57:52;;;;;;;4.10;1.50;;;;;;;;;;10572354;28;20408;-86
2022/08/13 14:02:54;;;;;;;3.17;1.70;;;;;;;;;;10556552;28;20402;-86
2022/08/13 14:07:58;;;;;;;1.85;1.40;;;;;;;;;;10545868;28;20405;-86
2022/08/13 14:13:02;;;;;;;2.93;1.47;;;;;;;;;;10538377;28;20429;-86
2022/08/13 14:18:08;;;;;;;2.00;1.40;;;;;;;;;;10538859;28;20828;-86
2022/08/13 14:23:12;;;;;;;2.80;1.50;;;;;;;;;;10542364;28;20395;-87
2022/08/13 14:28:18;;;;;;;1.70;1.20;;;;;;;;;;10535001;28;20409;-86
2022/08/13 14:33:21;;;;;;;3.50;1.77;;;;;;;;;;10541580;28;20423;-86
2022/08/13 14:38:23;;;;;;;2.78;1.35;;;;;;;;;;10523969;28;20488;-86
2022/08/13 14:43:27;;;;;;;2.30;1.25;;;;;;;;;;10514554;28;20988;-87
2022/08/13 14:48:31;;;;;;;2.13;1.40;;;;;;;;;;10524306;28;20532;-87
2022/08/13 14:53:33;;;;;;;3.40;1.58;;;;;;;;;;10514814;28;20907;-89
2022/08/13 14:58:37;;;;;;;1.90;1.30;;;;;;;;;;10520517;28;20407;-81
2022/08/13 15:03:44;;;;;;;1.98;1.60;;;;;;;;;;10543701;28;20423;-74
2022/08/13 15:08:47;;;;;;;1.58;1.30;;;;;;;;;;10547524;28;20761;-75
2022/08/13 15:13:52;;;;;;;1.30;1.20;;;;;;;;;;10547197;28;20486;-83
2022/08/13 15:18:54;;;;;;;1.70;1.40;;;;;;;;;;10546085;28;20469;-80
2022/08/13 15:23:55;;;;;;;2.08;1.52;;;;;;;;;;10546843;28;20950;-85
2022/08/13 15:29:03;;;;;;;1.48;1.30;;;;;;;;;;10544616;28;21307;-83
2022/08/13 15:34:05;;;;;;;2.47;1.20;;;;;;;;;;10550160;28;20429;-83
2022/08/13 15:39:07;;;;;;;1.37;1.20;;;;;;;;;;10547140;28;20396;-80
2022/08/13 15:44:10;;;;;;;1.42;1.33;;;;;;;;;;10535790;28;20426;-86
2022/08/13 15:49:12;;;;;;;1.30;1.10;;;;;;;;;;10540717;28;20441;-84
2022/08/13 15:54:15;;;;;;;1.67;1.30;;;;;;;;;;10541681;28;20486;-85
2022/08/13 15:59:19;;;;;;;2.30;1.50;;;;;;;;;;10518430;28;20406;-85
2022/08/13 16:04:21;;;;;;;3.22;1.35;;;;;;;;;;10518810;28;20420;-84
2022/08/13 16:09:24;;;;;;;2.38;1.30;;;;;;;;;;10549006;28;20407;-85
2022/08/13 16:14:28;;;;;;;1.35;1.20;;;;;;;;;;10536283;28;20437;-85
2022/08/13 16:19:31;;;;;;;1.17;1.10;;;;;;;;;;10545526;28;20389;-79
2022/08/13 16:24:33;;;;;;;1.90;1.30;;;;;;;;;;10539127;28;20452;-88
2022/08/13 16:29:38;;;;;;;1.88;1.42;;;;;;;;;;10532357;28;20497;-90
2022/08/13 16:34:43;;;;;;;1.58;1.30;;;;;;;;;;10513133;28;20418;-89
2022/08/13 16:39:44;;;;;;;2.77;1.33;;;;;;;;;;10511685;28;20782;-89
2022/08/13 16:44:48;;;;;;;1.65;1.10;;;;;;;;;;10506926;28;20412;-89
2022/08/13 16:49:50;;;;;;;1.40;1.30;;;;;;;;;;10503678;28;20417;-89
2022/08/13 16:54:52;;;;;;;2.35;1.30;;;;;;;;;;10508385;28;20400;-89
2022/08/13 16:59:57;;;;;;;1.73;1.45;;;;;;;;;;10499672;28;20408;-88
2022/08/13 17:10:18;;;;;;;1.80;1.23;;;;;;;;;;10509356;28;20395;-88
2022/08/13 17:15:22;;;;;;;1.60;1.50;;;;;;;;;;10508968;28;20447;-88
2022/08/13 17:20:26;;;;;;;2.35;2.05;;;;;;;;;;10512049;28;20917;-89
2022/08/13 17:25:30;;;;;;;3.33;1.67;;;;;;;;;;10524689;28;20568;-88
2022/08/13 17:30:34;;;;;;;1.60;1.50;;;;;;;;;;10502429;28;20961;-88
2022/08/13 17:35:35;;;;;;;3.47;1.37;;;;;;;;;;10505694;28;20393;-87
2022/08/13 17:40:37;;;;;;;4.38;1.33;;;;;;;;;;10512552;28;20404;-83
2022/08/13 17:45:41;;;;;;;1.80;1.42;;;;;;;;;;10522515;28;20429;-90
2022/08/13 17:50:44;;;;;;;2.85;1.60;;;;;;;;;;10520634;28;20678;-88
2022/08/13 17:55:46;;;;;;;2.63;2.00;;;;;;;;;;10526657;28;20495;-88
2022/08/13 18:00:49;;;;;;;2.67;1.70;;;;;;;;;;10526619;28;20466;-90
2022/08/13 18:05:53;;;;;;;2.17;1.65;;;;;;;;;;10543520;28;20417;-90
2022/08/13 18:10:55;;;;;;;7.03;1.55;;;;;;;;;;10510581;28;20527;-83
2022/08/13 18:15:58;;;;;;;2.57;1.30;;;;;;;;;;10517172;28;20499;-90
2022/08/13 18:21:00;;;;;;;1.63;1.30;;;;;;;;;;10525763;28;20412;-91
2022/08/13 18:26:02;;;;;;;1.80;1.40;;;;;;;;;;10529054;28;20439;-74
2022/08/13 18:31:06;;;;;;;1.70;1.57;;;;;;;;;;10520992;28;20469;-90
2022/08/13 18:36:08;;;;;;;2.30;1.50;;;;;;;;;;10508076;28;20463;-89
2022/08/13 18:41:10;;;;;;;2.40;1.48;;;;;;;;;;10535538;28;20469;-89
2022/08/13 18:46:13;;;;;;;1.50;1.40;;;;;;;;;;10528195;28;20414;-90
2022/08/13 18:51:16;;;;;;;2.10;1.70;;;;;;;;;;10505116;28;20936;-90
2022/08/13 18:56:19;;;;;;;4.00;2.20;;;;;;;;;;10530043;28;20404;-90
2022/08/13 19:01:23;;;;;;;2.70;1.88;;;;;;;;;;10529342;28;20456;-83
2022/08/13 19:06:25;;;;;;;2.75;1.65;;;;;;;;;;10524033;28;20418;-83
2022/08/13 19:11:28;;;;;;;2.42;1.55;;;;;;;;;;10502482;28;20413;-90
2022/08/13 19:16:32;;;;;;;3.67;1.48;;;;;;;;;;10519483;28;20434;-90
2022/08/13 19:21:34;;;;;;;2.23;1.20;;;;;;;;;;10516558;28;20414;-89
2022/08/13 19:26:36;;;;;;;1.92;1.80;;;;;;;;;;10515213;28;20449;-91
2022/08/13 19:31:41;;;;;;;2.17;1.60;;;;;;;;;;10527130;28;20497;-87
2022/08/13 19:36:44;;;;;;;2.30;1.55;;;;;;;;;;10518036;28;20402;-92
2022/08/13 19:41:46;;;;;;;2.50;2.20;;;;;;;;;;10548464;28;20431;-87
2022/08/13 19:46:50;;;;;;;3.30;1.88;;;;;;;;;;10544621;28;20414;-72
2022/08/13 19:51:52;;;;;;;4.17;2.07;;;;;;;;;;10523068;28;20413;-85
2022/08/13 19:56:55;;;;;;;1.90;1.70;;;;;;;;;;10523589;28;20419;-88
2022/08/13 20:02:00;;;;;;;1.70;1.55;;;;;;;;;;10533839;28;20914;-82
2022/08/13 20:07:02;;;;;;;2.50;1.60;;;;;;;;;;10545358;28;20421;-83
2022/08/13 20:12:05;;;;;;;4.90;1.97;;;;;;;;;;10538203;28;20402;-83
2022/08/13 20:17:08;;;;;;;3.20;1.60;;;;;;;;;;10538204;28;20774;-82
2022/08/13 20:22:10;;;;;;;2.60;1.53;;;;;;;;;;10543683;28;20471;-83
2022/08/13 20:27:12;;;;;;;2.20;1.53;;;;;;;;;;10524520;28;20481;-89
2022/08/13 20:32:15;;;;;;;3.80;1.50;;;;;;;;;;10515652;28;20432;-89
2022/08/13 20:37:18;;;;;;;1.92;1.60;;;;;;;;;;10507620;28;20485;-89
2022/08/13 20:42:20;;;;;;;1.65;1.55;;;;;;;;;;10504707;28;20397;-88
2022/08/13 20:47:23;;;;;;;2.70;1.50;;;;;;;;;;10502515;28;20960;-86
2022/08/13 20:52:25;;;;;;;2.75;1.70;;;;;;;;;;10499438;28;20852;-86
2022/08/13 20:57:27;;;;;;;1.75;1.65;;;;;;;;;;10499633;28;21105;-84
2022/08/13 21:02:30;;;;;;;6.20;2.00;;;;;;;;;;10497904;28;20441;-84
2022/08/13 21:07:32;;;;;;;2.20;1.63;;;;;;;;;;10497317;28;20515;-86
2022/08/13 21:12:34;;;;;;;2.30;1.92;;;;;;;;;;10499660;28;21230;-79
2022/08/13 21:17:37;;;;;;;3.50;1.63;;;;;;;;;;10517070;28;20394;-80
2022/08/13 21:22:39;;;;;;;2.67;2.20;;;;;;;;;;10534819;28;20482;-76
2022/08/13 21:27:42;;;;;;;2.22;2.00;;;;;;;;;;10532550;28;20424;-75
2022/08/13 21:32:53;;;;;;;2.43;2.10;;;;;;;;;;10533988;28;20477;-71
2022/08/13 21:37:59;;;;;;;2.42;2.20;;;;;;;;;;10519413;28;20422;-84
2022/08/13 21:43:01;;;;;;;3.58;2.22;;;;;;;;;;10508498;28;20427;-85
2022/08/13 21:48:05;;;;;;;3.53;2.55;;;;;;;;;;10504670;28;20582;-85
2022/08/13 21:53:07;;;;;;;5.20;2.83;;;;;;;;;;10509733;28;20486;-85
2022/08/13 21:58:09;;;;;;;3.78;2.42;;;;;;;;;;10511162;28;20489;-85
2022/08/13 22:03:13;;;;;;;4.50;2.70;;;;;;;;;;10529927;28;20413;-84
2022/08/13 22:08:15;;;;;;;4.55;2.70;;;;;;;;;;10520501;28;20424;-84
2022/08/13 22:13:18;;;;;;;4.00;3.10;;;;;;;;;;10516636;28;20399;-83
2022/08/13 22:18:22;;;;;;;3.58;2.83;;;;;;;;;;10518701;28;20396;-88
2022/08/13 22:23:25;;;;;;;5.32;2.80;;;;;;;;;;10529939;28;20941;-89
2022/08/13 22:33:49;;;;;;;4.60;3.13;;;;;;;;;;10525429;28;20388;-91
2022/08/13 22:38:51;;;;;;;5.57;3.17;;;;;;;;;;10530847;28;20807;-73
2022/08/13 22:43:53;;;;;;;4.23;2.93;;;;;;;;;;10515901;28;20896;-91
2022/08/13 22:48:57;;;;;;;3.40;2.77;;;;;;;;;;10541690;28;20440;-90
2022/08/13 22:53:59;;;;;;;4.43;2.70;;;;;;;;;;10556219;28;20414;-90
2022/08/13 22:59:00;;;;;;;2.85;2.40;;;;;;;;;;10554016;28;21276;-91
2022/08/13 23:04:04;;;;;;;4.25;2.50;;;;;;;;;;10560710;28;20806;-92
2022/08/13 23:09:07;;;;;;;4.20;2.72;;;;;;;;;;10562502;28;20442;-91
2022/08/13 23:14:09;;;;;;;3.47;2.53;;;;;;;;;;10537351;28;20419;-92
2022/08/13 23:19:15;;;;;;;2.35;2.15;;;;;;;;;;10559387;28;20488;-92
2022/08/13 23:24:16;;;;;;;3.88;2.40;;;;;;;;;;10564196;28;20408;-92
2022/08/13 23:29:18;;;;;;;3.30;2.40;;;;;;;;;;10564437;28;20420;-94
2022/08/13 23:34:22;;;;;;;3.75;2.33;;;;;;;;;;10556907;28;20429;-92
2022/08/13 23:39:24;;;;;;;5.93;2.43;;;;;;;;;;10533066;28;20411;-91
2022/08/13 23:44:26;;;;;;;3.33;2.33;;;;;;;;;;10553306;28;20439;-92
2022/08/13 23:49:30;;;;;;;2.78;2.42;;;;;;;;;;10564648;28;20489;-92
2022/08/13 23:54:31;;;;;;;3.03;2.40;;;;;;;;;;10536550;28;21005;-92
2022/08/13 23:59:33;;;;;;;3.33;2.78;;;;;;;;;;10558325;28;20471;-92
